Ana Sayfa
METAR-TAF:

METAR-TAF

Havaalanları :

Elista Havalimanı

Elista, Rusya

Enlem: 46-22N, Boylam: 044-20E, yükseklik: 150 m

Güncel hava durumu gözlemi

Rapor saat 04:30 UTC de 31 dakika önce yapıldı.
Rüzgar doğudan 10 kt
Sıcaklık -2°C
Nem 100%
Basınç 1013 hPa
Görüş mesafesi: 0300 m

METAR: URWI 110430Z AUTO 08005MPS 0350 0300S // ///001/// M02/M02 Q1013 RMK QBB050

Saat: 08:01 (05:01 UTC)

Tahmin

Rapor saat 11:22 UTC de 17 saat ve 39 dakika önce yapıldı.
Ayın 10'si saat 12 UTC'den ayın 10'si saat 21 UTC'ye kadar geçerli Tahmin
Rüzgar doğu/güneydoğudan 16 kt ve 27 kt'a kadar ani rüzgarlar
Görüş mesafesi: 0300 m
100 ft yükseklikte parçalı çok bulutlu
(Hafif) Donan, çisenti, Donan sis

TAF: URWI 101122Z 1012/1021 12008G14MPS 0300 -FZDZ FZFG BKN001

4.000'den fazla havaalanı için hava durumu gözlemleri ve tahminleri (METAR ve TAF raporları).

Kullanılabilir istasyonlar harita üzerinde sarı ve kırmızı noktalarla gösterilir.

İstasyonun adını görmek için fareyi noktanın üzerinde gezdirin.

Sonrasında hava gözlem ve tahminlerini görmek için tıklayın.

Haritayı değiştirmek için: yaklaştırmak için siyah artı işaretli yeşil düğmeye ve uzaklaştırmak için de eksi işaretli düğmeye hızla tıklayın; bitişik haritalar için yeşil okları kullanın.


METAR-TAF: